createdAt,value
2023-01-18T00:04:38.527Z,98424.81
2023-01-18T00:09:40.103Z,98422.41
2023-01-18T00:14:41.693Z,98426.63
2023-01-18T00:19:43.415Z,98423.06
2023-01-18T00:24:44.952Z,98431.88
2023-01-18T00:29:46.460Z,98423.53
2023-01-18T00:34:50.384Z,98428.69
2023-01-18T00:39:52.051Z,98440.88
2023-01-18T00:44:53.611Z,98438.94
2023-01-18T00:49:55.243Z,98442.81
2023-01-18T00:54:56.844Z,98445.38
2023-01-18T00:59:58.351Z,98452.41
2023-01-18T01:05:00.318Z,98456.78
2023-01-18T01:10:01.844Z,98460.63
2023-01-18T01:15:03.685Z,98463.53
2023-01-18T01:20:05.939Z,98457.09
2023-01-18T01:25:07.967Z,98456.78
2023-01-18T01:30:09.984Z,98457.28
2023-01-18T01:35:11.568Z,98461.91
2023-01-18T01:40:13.111Z,98470.59
2023-01-18T01:45:14.655Z,98475.25
2023-01-18T01:50:31.560Z,98482.13
2023-01-18T01:55:35.312Z,98485.03
2023-01-18T02:00:36.960Z,98489.88
2023-01-18T02:05:45.302Z,98487.59
2023-01-18T02:10:46.847Z,98494.00
2023-01-18T02:16:10.135Z,98506.56
2023-01-18T02:21:16.510Z,98505.59
2023-01-18T02:26:29.117Z,98506.56
2023-01-18T02:31:37.357Z,98516.47
2023-01-18T02:36:44.805Z,98516.75
2023-01-18T02:41:51.726Z,98513.69
2023-01-18T02:46:53.252Z,98527.13
2023-01-18T02:52:06.829Z,98532.28
2023-01-18T02:57:15.192Z,98539.34
2023-01-18T03:02:19.340Z,98537.03
2023-01-18T03:07:26.943Z,98534.94
2023-01-18T03:12:56.563Z,98545.22
2023-01-18T03:18:06.403Z,98549.81
2023-01-18T03:23:17.590Z,98552.16
2023-01-18T03:28:25.561Z,98544.91
2023-01-18T03:33:31.290Z,98547.50
2023-01-18T03:38:34.753Z,98550.13
2023-01-18T03:43:37.319Z,98558.44
2023-01-18T03:48:38.953Z,98564.81
2023-01-18T03:54:04.493Z,98568.44
2023-01-18T03:59:07.805Z,98571.28
2023-01-18T04:04:09.316Z,98588.47
2023-01-18T04:09:11.447Z,98589.81
2023-01-18T04:14:12.961Z,98596.09
2023-01-18T04:19:14.454Z,98605.22
2023-01-18T04:24:16.080Z,98605.38
2023-01-18T04:29:17.629Z,98625.50
2023-01-18T04:34:19.191Z,98621.44
2023-01-18T04:39:20.845Z,98620.72
2023-01-18T04:44:22.449Z,98621.34
2023-01-18T04:49:23.987Z,98623.91
2023-01-18T04:54:25.564Z,98634.00
2023-01-18T04:59:27.097Z,98637.63
2023-01-18T05:04:28.664Z,98642.81
2023-01-18T05:09:30.264Z,98654.97
2023-01-18T05:14:31.799Z,98657.75
2023-01-18T05:19:33.619Z,98673.84
2023-01-18T05:24:35.165Z,98680.50
2023-01-18T05:29:36.749Z,98682.06
2023-01-18T05:34:38.371Z,98687.63
2023-01-18T05:39:39.940Z,98698.19
2023-01-18T05:44:41.672Z,98717.31
2023-01-18T05:49:43.225Z,98720.34
2023-01-18T05:54:44.781Z,98732.81
2023-01-18T05:59:46.287Z,98738.66
2023-01-18T06:04:47.850Z,98752.06
2023-01-18T06:09:49.509Z,98756.09
2023-01-18T06:14:51.215Z,98756.31
2023-01-18T06:19:52.796Z,98768.94
2023-01-18T06:24:54.333Z,98772.63
2023-01-18T06:29:55.843Z,98776.66
2023-01-18T06:34:57.425Z,98784.25
2023-01-18T06:40:00.220Z,98787.41
2023-01-18T06:45:03.323Z,98799.31
2023-01-18T06:50:05.293Z,98808.66
2023-01-18T06:55:07.082Z,98813.75
2023-01-18T07:00:09.702Z,98821.09
2023-01-18T07:05:11.307Z,98829.47
2023-01-18T07:10:15.440Z,98838.88
2023-01-18T07:15:22.717Z,98840.63
2023-01-18T07:20:24.865Z,98841.31
2023-01-18T07:25:26.512Z,98851.28
2023-01-18T07:30:28.341Z,98857.34
2023-01-18T07:35:30.149Z,98861.34
2023-01-18T07:40:31.844Z,98864.47
2023-01-18T07:45:33.419Z,98879.31
2023-01-18T07:50:34.949Z,98883.53
2023-01-18T07:55:36.504Z,98891.09
2023-01-18T08:00:38.063Z,98894.91
2023-01-18T08:05:39.787Z,98918.75
2023-01-18T08:10:42.416Z,98926.63
2023-01-18T08:15:44.105Z,98932.63
2023-01-18T08:20:46.966Z,98947.75
2023-01-18T08:25:48.582Z,98945.97
2023-01-18T08:30:50.290Z,98953.81
2023-01-18T08:35:51.858Z,98965.09
2023-01-18T08:40:53.513Z,98977.25
2023-01-18T08:45:55.046Z,98987.09
2023-01-18T08:51:01.196Z,98985.72
2023-01-18T08:56:06.433Z,99000.28
2023-01-18T09:01:08.939Z,99001.19
2023-01-18T09:06:12.986Z,99017.34
2023-01-18T09:11:15.868Z,99018.94
2023-01-18T09:16:17.418Z,99021.59
2023-01-18T09:21:18.996Z,99023.88
2023-01-18T09:26:20.630Z,99036.75
2023-01-18T09:31:24.797Z,99055.41
2023-01-18T09:36:26.857Z,99054.94
2023-01-18T09:41:37.441Z,99055.41
2023-01-18T09:46:41.947Z,99061.09
2023-01-18T09:52:05.192Z,99066.31
2023-01-18T09:57:20.859Z,99076.66
2023-01-18T10:02:29.352Z,99078.13
2023-01-18T10:07:35.816Z,99087.13
2023-01-18T10:13:21.397Z,99097.94
2023-01-18T10:18:26.008Z,99089.91
2023-01-18T10:23:34.673Z,99095.03
2023-01-18T10:28:42.131Z,99103.50
2023-01-18T10:33:44.695Z,99102.97
2023-01-18T10:38:48.693Z,99093.00
2023-01-18T10:43:50.328Z,99090.78
2023-01-18T10:48:54.201Z,99103.97
2023-01-18T10:53:56.114Z,99102.09
2023-01-18T10:58:59.797Z,99108.81
2023-01-18T11:04:04.735Z,99106.22
2023-01-18T11:09:41.304Z,99102.53
2023-01-18T11:14:43.372Z,99114.69
2023-01-18T11:19:45.002Z,99112.34
2023-01-18T11:24:52.531Z,99129.84
2023-01-18T11:29:54.252Z,99127.09
2023-01-18T11:34:59.787Z,99130.34
2023-01-18T11:40:19.956Z,99132.75
2023-01-18T11:45:40.746Z,99133.78
2023-01-18T11:50:51.553Z,99134.66
2023-01-18T11:55:58.302Z,99136.19
2023-01-18T12:01:18.684Z,99137.75
2023-01-18T12:06:39.117Z,99136.25
2023-01-18T12:12:17.375Z,99129.13
2023-01-18T12:17:25.747Z,99133.31
2023-01-18T12:22:58.233Z,99148.53
2023-01-18T12:28:08.054Z,99139.41
2023-01-18T12:33:17.869Z,99144.38
2023-01-18T12:38:27.819Z,99155.47
2023-01-18T12:43:44.252Z,99147.81
2023-01-18T12:48:52.953Z,99146.53
2023-01-18T12:54:06.850Z,99151.97
2023-01-18T12:59:18.226Z,99142.03
2023-01-18T13:04:26.191Z,99146.69
2023-01-18T13:09:33.040Z,99158.91
2023-01-18T13:15:09.124Z,99159.78
2023-01-18T13:20:25.272Z,99164.94
2023-01-18T13:25:45.539Z,99160.06
2023-01-18T13:30:53.970Z,99164.63
2023-01-18T13:36:13.293Z,99170.19
2023-01-18T13:41:21.387Z,99185.81
2023-01-18T13:46:25.658Z,99183.59
2023-01-18T13:51:39.107Z,99191.22
2023-01-18T13:56:41.072Z,99188.75
2023-01-18T14:01:45.944Z,99193.91
2023-01-18T14:06:49.440Z,99202.78
2023-01-18T14:11:55.427Z,99211.34
2023-01-18T14:17:05.717Z,99218.25
2023-01-18T14:22:33.479Z,99233.28
2023-01-18T14:27:42.948Z,99239.00
2023-01-18T14:33:02.132Z,99238.94
2023-01-18T14:38:16.787Z,99241.09
2023-01-18T14:43:30.070Z,99245.09
2023-01-18T14:48:34.668Z,99248.00
2023-01-18T14:53:45.982Z,99254.47
2023-01-18T14:58:51.884Z,99265.38
2023-01-18T15:03:55.258Z,99271.88
2023-01-18T15:08:56.963Z,99273.25
2023-01-18T15:13:58.954Z,99273.34
2023-01-18T15:19:01.013Z,99287.06
2023-01-18T15:24:09.228Z,99299.53
2023-01-18T15:29:19.767Z,99302.03
2023-01-18T15:34:33.407Z,99307.00
2023-01-18T15:39:35.051Z,99309.41
2023-01-18T15:44:52.351Z,99315.81
2023-01-18T15:50:00.314Z,99308.16
2023-01-18T15:55:07.318Z,99311.28
2023-01-18T16:00:26.480Z,99315.06
2023-01-18T16:05:28.247Z,99314.00
2023-01-18T16:10:30.020Z,99308.84
2023-01-18T16:15:31.729Z,99316.78
2023-01-18T16:20:35.356Z,99324.09
2023-01-18T16:25:37.448Z,99324.41
2023-01-18T16:30:40.307Z,99336.53
2023-01-18T16:35:41.982Z,99341.53
2023-01-18T16:40:46.071Z,99339.00
2023-01-18T16:45:49.896Z,99349.50
2023-01-18T16:50:51.974Z,99354.97
2023-01-18T16:55:53.750Z,99351.97
2023-01-18T17:01:11.939Z,99356.50
2023-01-18T17:06:19.600Z,99364.16
2023-01-18T17:11:21.094Z,99372.78
2023-01-18T17:16:22.948Z,99374.28
2023-01-18T17:21:24.546Z,99396.88
2023-01-18T17:26:26.158Z,99402.72
2023-01-18T17:31:28.755Z,99404.47
2023-01-18T17:36:30.328Z,99412.72
2023-01-18T17:41:32.144Z,99414.28
2023-01-18T17:46:34.174Z,99418.19
2023-01-18T17:51:35.799Z,99418.84
2023-01-18T17:56:37.341Z,99420.56
2023-01-18T18:01:38.978Z,99422.19
2023-01-18T18:06:49.744Z,99431.22
2023-01-18T18:11:56.821Z,99441.16
2023-01-18T18:16:58.447Z,99444.91
2023-01-18T18:22:01.068Z,99444.69
2023-01-18T18:27:03.061Z,99458.34
2023-01-18T18:32:05.070Z,99458.09
2023-01-18T18:37:07.156Z,99473.41
2023-01-18T18:42:08.724Z,99471.78
2023-01-18T18:47:10.247Z,99482.31
2023-01-18T18:52:12.044Z,99486.44
2023-01-18T18:57:13.791Z,99488.50
2023-01-18T19:02:16.394Z,99498.81
2023-01-18T19:07:18.070Z,99498.03
2023-01-18T19:12:19.658Z,99508.75
2023-01-18T19:17:29.855Z,99511.84
2023-01-18T19:22:32.266Z,99520.78
2023-01-18T19:27:34.145Z,99522.16
2023-01-18T19:32:36.220Z,99535.78
2023-01-18T19:37:37.842Z,99539.03
2023-01-18T19:42:39.855Z,99530.22
2023-01-18T19:47:41.576Z,99539.00
2023-01-18T19:52:43.205Z,99542.00
2023-01-18T19:57:44.838Z,99541.03
2023-01-18T20:02:46.558Z,99548.50
2023-01-18T20:07:48.268Z,99546.56
2023-01-18T20:12:50.150Z,99555.28
2023-01-18T20:17:51.793Z,99554.91
2023-01-18T20:22:53.578Z,99553.00
2023-01-18T20:27:55.280Z,99561.63
2023-01-18T20:32:57.196Z,99567.78
2023-01-18T20:37:58.927Z,99568.34
2023-01-18T20:43:01.682Z,99568.44
2023-01-18T20:48:04.047Z,99566.41
2023-01-18T20:53:05.654Z,99572.03
2023-01-18T20:58:07.273Z,99585.69
2023-01-18T21:03:13.343Z,99593.25
2023-01-18T21:08:15.123Z,99593.09
2023-01-18T21:13:19.663Z,99596.09
2023-01-18T21:18:22.035Z,99606.16
2023-01-18T21:23:24.713Z,99604.13
2023-01-18T21:28:26.617Z,99610.63
2023-01-18T21:33:28.410Z,99607.34
2023-01-18T21:38:29.957Z,99614.47
2023-01-18T21:43:31.564Z,99618.91
2023-01-18T21:48:33.451Z,99618.38
2023-01-18T21:53:35.287Z,99618.06
2023-01-18T21:58:36.825Z,99625.88
2023-01-18T22:03:38.359Z,99625.03
2023-01-18T22:08:40.045Z,99631.88
2023-01-18T22:13:41.710Z,99638.28
2023-01-18T22:18:43.316Z,99635.06
2023-01-18T22:23:48.196Z,99644.75
2023-01-18T22:28:50.717Z,99650.19
2023-01-18T22:33:52.347Z,99659.44
2023-01-18T22:38:54.228Z,99661.50
2023-01-18T22:43:56.275Z,99663.66
2023-01-18T22:48:58.678Z,99669.94
2023-01-18T22:54:00.169Z,99673.38
2023-01-18T22:59:01.769Z,99667.56
2023-01-18T23:04:04.258Z,99667.56
2023-01-18T23:09:05.968Z,99676.75
2023-01-18T23:14:07.784Z,99679.78
2023-01-18T23:19:09.367Z,99672.03
2023-01-18T23:24:11.059Z,99676.78
2023-01-18T23:29:12.678Z,99687.47
2023-01-18T23:34:14.243Z,99675.72
2023-01-18T23:39:15.819Z,99674.63
2023-01-18T23:44:17.580Z,99685.50
2023-01-18T23:49:19.127Z,99686.91
2023-01-18T23:54:20.740Z,99694.41
2023-01-18T23:59:22.340Z,99684.22
